Terminal Aerodrome Forecast
Issued by NWS

Home | Current Version | Previous Version | Text Only | Print | Product List | Glossary On
Versions: 1 2 3 4 5 6 7 8 9 10 11 12
000
FTUS45 KGJT 191131
TAFDRO
TAF
KDRO 191131Z 1912/2012 03005KT P6SM SKC
     FM191600 23010KT P6SM SKC
     FM192000 25018G28KT P6SM SKC
     FM200200 26009KT P6SM SKC
     FM200600 27007KT P6SM SKC=

USA.gov is the U.S. government's official web portal to all federal, state and local government web resources and services.